sensor_id;sensor_type;location;lat;lon;timestamp;temperature;humidity
46139;DHT22;32398;49.112;8.598;2023-07-31T00:00:44;19.80;73.90
46139;DHT22;32398;49.112;8.598;2023-07-31T00:03:11;19.70;73.90
46139;DHT22;32398;49.112;8.598;2023-07-31T00:05:38;19.70;74.00
46139;DHT22;32398;49.112;8.598;2023-07-31T00:08:04;19.70;74.10
46139;DHT22;32398;49.112;8.598;2023-07-31T00:10:32;19.70;74.20
46139;DHT22;32398;49.112;8.598;2023-07-31T00:12:59;19.60;74.30
46139;DHT22;32398;49.112;8.598;2023-07-31T00:15:26;19.60;74.40
46139;DHT22;32398;49.112;8.598;2023-07-31T00:17:52;19.60;74.60
46139;DHT22;32398;49.112;8.598;2023-07-31T00:20:19;19.60;74.70
46139;DHT22;32398;49.112;8.598;2023-07-31T00:22:46;19.60;74.50
46139;DHT22;32398;49.112;8.598;2023-07-31T00:25:12;19.60;74.50
46139;DHT22;32398;49.112;8.598;2023-07-31T00:27:40;19.50;74.60
46139;DHT22;32398;49.112;8.598;2023-07-31T00:30:10;19.50;74.60
46139;DHT22;32398;49.112;8.598;2023-07-31T00:32:36;19.50;74.80
46139;DHT22;32398;49.112;8.598;2023-07-31T00:35:03;19.50;74.90
46139;DHT22;32398;49.112;8.598;2023-07-31T00:37:30;19.50;75.00
46139;DHT22;32398;49.112;8.598;2023-07-31T00:39:56;19.40;75.20
46139;DHT22;32398;49.112;8.598;2023-07-31T00:42:23;19.40;75.30
46139;DHT22;32398;49.112;8.598;2023-07-31T00:44:51;19.40;75.50
46139;DHT22;32398;49.112;8.598;2023-07-31T00:47:18;19.40;75.50
46139;DHT22;32398;49.112;8.598;2023-07-31T00:49:44;19.40;75.50
46139;DHT22;32398;49.112;8.598;2023-07-31T00:52:11;19.40;75.50
46139;DHT22;32398;49.112;8.598;2023-07-31T00:54:38;19.40;75.30
46139;DHT22;32398;49.112;8.598;2023-07-31T00:57:05;19.40;75.40
46139;DHT22;32398;49.112;8.598;2023-07-31T00:59:33;19.30;75.30
46139;DHT22;32398;49.112;8.598;2023-07-31T01:02:00;19.30;75.30
46139;DHT22;32398;49.112;8.598;2023-07-31T01:04:27;19.30;75.30
46139;DHT22;32398;49.112;8.598;2023-07-31T01:06:55;19.30;75.20
46139;DHT22;32398;49.112;8.598;2023-07-31T01:09:35;19.30;75.30
46139;DHT22;32398;49.112;8.598;2023-07-31T01:12:03;19.30;75.40
46139;DHT22;32398;49.112;8.598;2023-07-31T01:14:30;19.30;75.40
46139;DHT22;32398;49.112;8.598;2023-07-31T01:16:56;19.30;75.40
46139;DHT22;32398;49.112;8.598;2023-07-31T01:19:25;19.20;75.30
46139;DHT22;32398;49.112;8.598;2023-07-31T01:22:07;19.20;75.30
46139;DHT22;32398;49.112;8.598;2023-07-31T01:24:42;19.20;75.20
46139;DHT22;32398;49.112;8.598;2023-07-31T01:27:18;19.20;75.00
46139;DHT22;32398;49.112;8.598;2023-07-31T01:29:49;19.20;75.10
46139;DHT22;32398;49.112;8.598;2023-07-31T01:32:18;19.20;75.00
46139;DHT22;32398;49.112;8.598;2023-07-31T01:34:45;19.20;75.00
46139;DHT22;32398;49.112;8.598;2023-07-31T01:37:13;19.10;75.10
46139;DHT22;32398;49.112;8.598;2023-07-31T01:39:39;19.10;75.20
46139;DHT22;32398;49.112;8.598;2023-07-31T01:42:06;19.20;75.20
46139;DHT22;32398;49.112;8.598;2023-07-31T01:44:34;19.10;75.10
46139;DHT22;32398;49.112;8.598;2023-07-31T01:47:00;19.10;75.20
46139;DHT22;32398;49.112;8.598;2023-07-31T01:49:27;19.10;75.40
46139;DHT22;32398;49.112;8.598;2023-07-31T01:51:54;19.00;75.40
46139;DHT22;32398;49.112;8.598;2023-07-31T01:54:20;19.00;75.40
46139;DHT22;32398;49.112;8.598;2023-07-31T01:56:47;19.10;75.40
46139;DHT22;32398;49.112;8.598;2023-07-31T01:59:13;19.00;75.00
46139;DHT22;32398;49.112;8.598;2023-07-31T02:01:41;19.00;75.00
46139;DHT22;32398;49.112;8.598;2023-07-31T02:04:08;19.00;75.10
46139;DHT22;32398;49.112;8.598;2023-07-31T02:06:36;19.00;75.10
46139;DHT22;32398;49.112;8.598;2023-07-31T02:09:03;19.00;75.00
46139;DHT22;32398;49.112;8.598;2023-07-31T02:11:29;18.90;74.90
46139;DHT22;32398;49.112;8.598;2023-07-31T02:13:56;18.90;74.80
46139;DHT22;32398;49.112;8.598;2023-07-31T02:16:22;18.90;74.80
46139;DHT22;32398;49.112;8.598;2023-07-31T02:18:50;18.90;74.80
46139;DHT22;32398;49.112;8.598;2023-07-31T02:21:17;18.90;74.50
46139;DHT22;32398;49.112;8.598;2023-07-31T02:23:44;18.90;74.40
46139;DHT22;32398;49.112;8.598;2023-07-31T02:26:10;18.90;74.60
46139;DHT22;32398;49.112;8.598;2023-07-31T02:28:37;18.90;74.40
46139;DHT22;32398;49.112;8.598;2023-07-31T02:31:03;18.80;74.30
46139;DHT22;32398;49.112;8.598;2023-07-31T02:33:30;18.80;74.30
46139;DHT22;32398;49.112;8.598;2023-07-31T02:35:58;18.80;74.40
46139;DHT22;32398;49.112;8.598;2023-07-31T02:38:24;18.80;74.40
46139;DHT22;32398;49.112;8.598;2023-07-31T02:40:51;18.80;74.50
46139;DHT22;32398;49.112;8.598;2023-07-31T02:43:17;18.80;74.50
46139;DHT22;32398;49.112;8.598;2023-07-31T02:45:44;18.80;74.60
46139;DHT22;32398;49.112;8.598;2023-07-31T02:48:11;18.80;74.70
46139;DHT22;32398;49.112;8.598;2023-07-31T02:50:37;18.80;74.60
46139;DHT22;32398;49.112;8.598;2023-07-31T02:53:05;18.70;74.70
46139;DHT22;32398;49.112;8.598;2023-07-31T02:55:32;18.70;75.00
46139;DHT22;32398;49.112;8.598;2023-07-31T02:57:58;18.70;74.70
46139;DHT22;32398;49.112;8.598;2023-07-31T03:00:25;18.70;74.80
46139;DHT22;32398;49.112;8.598;2023-07-31T03:02:51;18.70;74.90
46139;DHT22;32398;49.112;8.598;2023-07-31T03:05:18;18.70;74.80
46139;DHT22;32398;49.112;8.598;2023-07-31T03:07:44;18.70;75.00
46139;DHT22;32398;49.112;8.598;2023-07-31T03:10:12;18.70;75.00
46139;DHT22;32398;49.112;8.598;2023-07-31T03:12:39;18.70;75.10
46139;DHT22;32398;49.112;8.598;2023-07-31T03:15:07;18.70;75.30
46139;DHT22;32398;49.112;8.598;2023-07-31T03:17:33;18.70;75.20
46139;DHT22;32398;49.112;8.598;2023-07-31T03:20:00;18.60;75.00
46139;DHT22;32398;49.112;8.598;2023-07-31T03:22:26;18.60;74.90
46139;DHT22;32398;49.112;8.598;2023-07-31T03:24:53;18.60;74.80
46139;DHT22;32398;49.112;8.598;2023-07-31T03:27:21;18.60;74.90
46139;DHT22;32398;49.112;8.598;2023-07-31T03:29:48;18.60;75.00
46139;DHT22;32398;49.112;8.598;2023-07-31T03:32:16;18.60;75.00
46139;DHT22;32398;49.112;8.598;2023-07-31T03:34:43;18.60;75.00
46139;DHT22;32398;49.112;8.598;2023-07-31T03:37:09;18.60;75.20
46139;DHT22;32398;49.112;8.598;2023-07-31T03:39:36;18.50;75.00
46139;DHT22;32398;49.112;8.598;2023-07-31T03:42:02;18.50;75.00
46139;DHT22;32398;49.112;8.598;2023-07-31T03:44:29;18.50;75.00
46139;DHT22;32398;49.112;8.598;2023-07-31T03:46:56;18.50;74.90
46139;DHT22;32398;49.112;8.598;2023-07-31T03:49:22;18.50;75.00
46139;DHT22;32398;49.112;8.598;2023-07-31T03:51:49;18.50;74.90
46139;DHT22;32398;49.112;8.598;2023-07-31T03:54:16;18.50;75.00
46139;DHT22;32398;49.112;8.598;2023-07-31T03:56:42;18.50;75.00
46139;DHT22;32398;49.112;8.598;2023-07-31T03:59:09;18.50;75.10
46139;DHT22;32398;49.112;8.598;2023-07-31T04:01:37;18.50;75.10
46139;DHT22;32398;49.112;8.598;2023-07-31T04:04:03;18.50;75.20
46139;DHT22;32398;49.112;8.598;2023-07-31T04:06:30;18.40;75.10
46139;DHT22;32398;49.112;8.598;2023-07-31T04:08:57;18.40;75.30
46139;DHT22;32398;49.112;8.598;2023-07-31T04:11:23;18.40;75.00
46139;DHT22;32398;49.112;8.598;2023-07-31T04:13:50;18.40;75.10
46139;DHT22;32398;49.112;8.598;2023-07-31T04:16:16;18.40;75.20
46139;DHT22;32398;49.112;8.598;2023-07-31T04:18:44;18.40;75.00
46139;DHT22;32398;49.112;8.598;2023-07-31T04:21:11;18.40;74.90
46139;DHT22;32398;49.112;8.598;2023-07-31T04:23:37;18.40;75.00
46139;DHT22;32398;49.112;8.598;2023-07-31T04:26:04;18.40;75.20
46139;DHT22;32398;49.112;8.598;2023-07-31T04:28:31;18.30;75.10
46139;DHT22;32398;49.112;8.598;2023-07-31T04:30:57;18.30;75.10
46139;DHT22;32398;49.112;8.598;2023-07-31T04:33:24;18.30;75.80
46139;DHT22;32398;49.112;8.598;2023-07-31T04:35:52;18.30;75.20
46139;DHT22;32398;49.112;8.598;2023-07-31T04:38:19;18.30;75.30
46139;DHT22;32398;49.112;8.598;2023-07-31T04:40:46;18.30;75.80
46139;DHT22;32398;49.112;8.598;2023-07-31T04:43:13;18.30;75.40
46139;DHT22;32398;49.112;8.598;2023-07-31T04:45:42;18.30;75.40
46139;DHT22;32398;49.112;8.598;2023-07-31T04:48:08;18.30;75.40
46139;DHT22;32398;49.112;8.598;2023-07-31T04:50:35;18.30;75.40
46139;DHT22;32398;49.112;8.598;2023-07-31T04:53:03;18.30;75.50
46139;DHT22;32398;49.112;8.598;2023-07-31T04:55:29;18.40;75.30
46139;DHT22;32398;49.112;8.598;2023-07-31T04:57:57;18.30;75.30
46139;DHT22;32398;49.112;8.598;2023-07-31T05:00:24;18.30;75.40
46139;DHT22;32398;49.112;8.598;2023-07-31T05:02:50;18.30;75.60
46139;DHT22;32398;49.112;8.598;2023-07-31T05:05:17;18.30;75.80
46139;DHT22;32398;49.112;8.598;2023-07-31T05:07:43;18.30;75.80
46139;DHT22;32398;49.112;8.598;2023-07-31T05:10:11;18.30;76.60
46139;DHT22;32398;49.112;8.598;2023-07-31T05:12:38;18.20;75.80
46139;DHT22;32398;49.112;8.598;2023-07-31T05:15:05;18.30;76.00
46139;DHT22;32398;49.112;8.598;2023-07-31T05:17:32;18.30;76.10
46139;DHT22;32398;49.112;8.598;2023-07-31T05:19:58;18.30;76.10
46139;DHT22;32398;49.112;8.598;2023-07-31T05:22:25;18.30;76.10
46139;DHT22;32398;49.112;8.598;2023-07-31T05:24:51;18.30;76.20
46139;DHT22;32398;49.112;8.598;2023-07-31T05:27:20;18.20;76.10
46139;DHT22;32398;49.112;8.598;2023-07-31T05:29:47;18.20;76.10
46139;DHT22;32398;49.112;8.598;2023-07-31T05:32:13;18.20;76.20
46139;DHT22;32398;49.112;8.598;2023-07-31T05:34:40;18.20;76.30
46139;DHT22;32398;49.112;8.598;2023-07-31T05:37:07;18.20;76.40
46139;DHT22;32398;49.112;8.598;2023-07-31T05:39:34;18.20;76.30
46139;DHT22;32398;49.112;8.598;2023-07-31T05:42:00;18.20;76.30
46139;DHT22;32398;49.112;8.598;2023-07-31T05:44:28;18.20;76.40
46139;DHT22;32398;49.112;8.598;2023-07-31T05:46:55;18.30;76.50
46139;DHT22;32398;49.112;8.598;2023-07-31T05:49:22;18.20;76.50
46139;DHT22;32398;49.112;8.598;2023-07-31T05:51:48;18.30;76.50
46139;DHT22;32398;49.112;8.598;2023-07-31T05:54:15;18.30;74.40
46139;DHT22;32398;49.112;8.598;2023-07-31T05:56:41;18.40;73.60
46139;DHT22;32398;49.112;8.598;2023-07-31T05:59:08;18.40;73.50
46139;DHT22;32398;49.112;8.598;2023-07-31T06:01:36;18.40;74.00
46139;DHT22;32398;49.112;8.598;2023-07-31T06:04:02;18.40;74.40
46139;DHT22;32398;49.112;8.598;2023-07-31T06:06:29;18.30;74.70
46139;DHT22;32398;49.112;8.598;2023-07-31T06:08:56;18.30;74.90
46139;DHT22;32398;49.112;8.598;2023-07-31T06:11:22;18.30;75.20
46139;DHT22;32398;49.112;8.598;2023-07-31T06:13:49;18.30;75.20
46139;DHT22;32398;49.112;8.598;2023-07-31T06:16:15;18.30;75.50
46139;DHT22;32398;49.112;8.598;2023-07-31T06:18:44;18.30;75.60
46139;DHT22;32398;49.112;8.598;2023-07-31T06:21:10;18.30;75.70
46139;DHT22;32398;49.112;8.598;2023-07-31T06:23:37;18.30;75.80
46139;DHT22;32398;49.112;8.598;2023-07-31T06:26:03;18.30;75.90
46139;DHT22;32398;49.112;8.598;2023-07-31T06:28:30;18.30;76.00
46139;DHT22;32398;49.112;8.598;2023-07-31T06:30:57;18.30;76.10
46139;DHT22;32398;49.112;8.598;2023-07-31T06:33:23;18.30;76.10
46139;DHT22;32398;49.112;8.598;2023-07-31T06:35:51;18.30;76.10
46139;DHT22;32398;49.112;8.598;2023-07-31T06:38:18;18.30;76.20
46139;DHT22;32398;49.112;8.598;2023-07-31T06:40:45;18.30;76.20
46139;DHT22;32398;49.112;8.598;2023-07-31T06:43:11;18.40;76.30
46139;DHT22;32398;49.112;8.598;2023-07-31T06:45:38;18.40;76.30
46139;DHT22;32398;49.112;8.598;2023-07-31T06:48:04;18.40;76.40
46139;DHT22;32398;49.112;8.598;2023-07-31T06:50:31;18.40;76.40
46139;DHT22;32398;49.112;8.598;2023-07-31T06:52:59;18.40;76.40
46139;DHT22;32398;49.112;8.598;2023-07-31T06:55:26;18.40;76.40
46139;DHT22;32398;49.112;8.598;2023-07-31T06:57:53;18.50;76.50
46139;DHT22;32398;49.112;8.598;2023-07-31T07:00:20;18.40;76.30
46139;DHT22;32398;49.112;8.598;2023-07-31T07:02:47;18.50;76.40
46139;DHT22;32398;49.112;8.598;2023-07-31T07:05:13;18.50;76.30
46139;DHT22;32398;49.112;8.598;2023-07-31T07:07:40;18.50;76.30
46139;DHT22;32398;49.112;8.598;2023-07-31T07:10:09;18.50;76.20
46139;DHT22;32398;49.112;8.598;2023-07-31T07:12:35;18.50;76.20
46139;DHT22;32398;49.112;8.598;2023-07-31T07:15:02;18.60;76.10
46139;DHT22;32398;49.112;8.598;2023-07-31T07:17:29;18.50;76.10
46139;DHT22;32398;49.112;8.598;2023-07-31T07:19:56;18.60;76.10
46139;DHT22;32398;49.112;8.598;2023-07-31T07:22:23;18.60;76.00
46139;DHT22;32398;49.112;8.598;2023-07-31T07:24:49;18.60;76.00
46139;DHT22;32398;49.112;8.598;2023-07-31T07:27:17;18.60;75.90
46139;DHT22;32398;49.112;8.598;2023-07-31T07:29:45;18.60;76.00
46139;DHT22;32398;49.112;8.598;2023-07-31T07:32:11;18.60;75.80
46139;DHT22;32398;49.112;8.598;2023-07-31T07:34:38;18.70;75.90
46139;DHT22;32398;49.112;8.598;2023-07-31T07:37:05;18.70;75.90
46139;DHT22;32398;49.112;8.598;2023-07-31T07:39:32;18.70;75.90
46139;DHT22;32398;49.112;8.598;2023-07-31T07:41:58;18.80;75.80
46139;DHT22;32398;49.112;8.598;2023-07-31T07:44:26;18.70;75.70
46139;DHT22;32398;49.112;8.598;2023-07-31T07:46:53;18.80;76.30
46139;DHT22;32398;49.112;8.598;2023-07-31T07:49:19;18.80;75.60
46139;DHT22;32398;49.112;8.598;2023-07-31T07:51:47;18.80;75.50
46139;DHT22;32398;49.112;8.598;2023-07-31T07:54:14;18.80;75.50
46139;DHT22;32398;49.112;8.598;2023-07-31T07:56:42;18.80;75.50
46139;DHT22;32398;49.112;8.598;2023-07-31T07:59:08;18.90;75.50
46139;DHT22;32398;49.112;8.598;2023-07-31T08:01:36;18.90;75.30
46139;DHT22;32398;49.112;8.598;2023-07-31T08:04:03;18.90;75.30
46139;DHT22;32398;49.112;8.598;2023-07-31T08:06:29;18.90;75.20
46139;DHT22;32398;49.112;8.598;2023-07-31T08:08:56;18.90;75.30
46139;DHT22;32398;49.112;8.598;2023-07-31T08:11:23;19.00;75.30
46139;DHT22;32398;49.112;8.598;2023-07-31T08:13:49;19.00;75.40
46139;DHT22;32398;49.112;8.598;2023-07-31T08:16:16;19.00;75.40
46139;DHT22;32398;49.112;8.598;2023-07-31T08:18:44;19.00;75.30
46139;DHT22;32398;49.112;8.598;2023-07-31T08:21:10;19.00;75.40
46139;DHT22;32398;49.112;8.598;2023-07-31T08:23:37;19.00;75.50
46139;DHT22;32398;49.112;8.598;2023-07-31T08:26:03;19.00;75.50
46139;DHT22;32398;49.112;8.598;2023-07-31T08:28:30;19.10;75.30
46139;DHT22;32398;49.112;8.598;2023-07-31T08:30:56;19.10;75.20
46139;DHT22;32398;49.112;8.598;2023-07-31T08:33:23;19.10;75.00
46139;DHT22;32398;49.112;8.598;2023-07-31T08:35:51;19.10;75.00
46139;DHT22;32398;49.112;8.598;2023-07-31T08:38:17;19.10;74.80
46139;DHT22;32398;49.112;8.598;2023-07-31T08:40:44;19.20;74.80
46139;DHT22;32398;49.112;8.598;2023-07-31T08:43:11;19.10;74.70
46139;DHT22;32398;49.112;8.598;2023-07-31T08:45:37;19.20;74.60
46139;DHT22;32398;49.112;8.598;2023-07-31T08:48:05;19.20;74.50
46139;DHT22;32398;49.112;8.598;2023-07-31T08:50:31;19.20;74.50
46139;DHT22;32398;49.112;8.598;2023-07-31T08:53:00;19.30;74.60
46139;DHT22;32398;49.112;8.598;2023-07-31T08:55:26;19.30;74.50
46139;DHT22;32398;49.112;8.598;2023-07-31T08:57:53;19.30;74.50
46139;DHT22;32398;49.112;8.598;2023-07-31T09:00:20;19.40;74.50
46139;DHT22;32398;49.112;8.598;2023-07-31T09:02:51;19.40;74.40
46139;DHT22;32398;49.112;8.598;2023-07-31T09:05:18;19.40;74.40
46139;DHT22;32398;49.112;8.598;2023-07-31T09:07:45;19.50;74.10
46139;DHT22;32398;49.112;8.598;2023-07-31T09:10:14;19.50;74.00
46139;DHT22;32398;49.112;8.598;2023-07-31T09:12:41;19.60;74.70
46139;DHT22;32398;49.112;8.598;2023-07-31T09:15:08;19.60;73.80
46139;DHT22;32398;49.112;8.598;2023-07-31T09:17:35;19.60;73.80
46139;DHT22;32398;49.112;8.598;2023-07-31T09:20:12;19.70;73.80
46139;DHT22;32398;49.112;8.598;2023-07-31T09:22:39;19.70;73.50
46139;DHT22;32398;49.112;8.598;2023-07-31T09:25:15;19.80;73.40
46139;DHT22;32398;49.112;8.598;2023-07-31T09:27:46;19.80;73.40
46139;DHT22;32398;49.112;8.598;2023-07-31T09:30:12;19.90;73.30
46139;DHT22;32398;49.112;8.598;2023-07-31T09:32:39;19.90;73.30
46139;DHT22;32398;49.112;8.598;2023-07-31T09:35:12;19.90;73.00
46139;DHT22;32398;49.112;8.598;2023-07-31T09:37:39;20.00;72.90
46139;DHT22;32398;49.112;8.598;2023-07-31T09:40:06;20.00;72.60
46139;DHT22;32398;49.112;8.598;2023-07-31T09:42:35;20.00;72.50
46139;DHT22;32398;49.112;8.598;2023-07-31T09:45:08;20.10;72.50
46139;DHT22;32398;49.112;8.598;2023-07-31T09:47:35;20.10;72.60
46139;DHT22;32398;49.112;8.598;2023-07-31T09:50:01;20.20;72.40
46139;DHT22;32398;49.112;8.598;2023-07-31T09:52:33;20.20;72.30
46139;DHT22;32398;49.112;8.598;2023-07-31T09:54:59;20.30;72.20
46139;DHT22;32398;49.112;8.598;2023-07-31T09:57:26;20.30;72.10
46139;DHT22;32398;49.112;8.598;2023-07-31T09:59:55;20.40;71.80
46139;DHT22;32398;49.112;8.598;2023-07-31T10:02:22;20.50;71.80
46139;DHT22;32398;49.112;8.598;2023-07-31T10:04:49;20.50;71.60
46139;DHT22;32398;49.112;8.598;2023-07-31T10:07:16;20.60;71.60
46139;DHT22;32398;49.112;8.598;2023-07-31T10:09:43;20.60;71.30
46139;DHT22;32398;49.112;8.598;2023-07-31T10:12:11;20.70;71.10
46139;DHT22;32398;49.112;8.598;2023-07-31T10:14:38;20.80;71.10
46139;DHT22;32398;49.112;8.598;2023-07-31T10:17:07;20.80;70.80
46139;DHT22;32398;49.112;8.598;2023-07-31T10:19:34;20.90;70.50
46139;DHT22;32398;49.112;8.598;2023-07-31T10:22:02;20.90;70.60
46139;DHT22;32398;49.112;8.598;2023-07-31T10:24:29;21.00;70.50
46139;DHT22;32398;49.112;8.598;2023-07-31T10:26:56;21.00;70.40
46139;DHT22;32398;49.112;8.598;2023-07-31T10:29:23;21.00;70.20
46139;DHT22;32398;49.112;8.598;2023-07-31T10:31:50;21.00;69.90
46139;DHT22;32398;49.112;8.598;2023-07-31T10:34:19;21.10;70.10
46139;DHT22;32398;49.112;8.598;2023-07-31T10:36:45;21.10;69.90
46139;DHT22;32398;49.112;8.598;2023-07-31T10:41:53;21.20;70.50
46139;DHT22;32398;49.112;8.598;2023-07-31T10:44:20;21.20;69.80
46139;DHT22;32398;49.112;8.598;2023-07-31T10:46:46;21.30;68.30
46139;DHT22;32398;49.112;8.598;2023-07-31T10:49:13;21.70;65.30
46139;DHT22;32398;49.112;8.598;2023-07-31T10:51:48;21.90;65.00
46139;DHT22;32398;49.112;8.598;2023-07-31T10:54:15;22.10;65.30
46139;DHT22;32398;49.112;8.598;2023-07-31T10:56:44;22.20;65.30
46139;DHT22;32398;49.112;8.598;2023-07-31T10:59:11;22.20;65.30
46139;DHT22;32398;49.112;8.598;2023-07-31T11:01:51;22.30;65.40
46139;DHT22;32398;49.112;8.598;2023-07-31T11:04:21;22.40;65.00
46139;DHT22;32398;49.112;8.598;2023-07-31T11:06:56;22.50;64.90
46139;DHT22;32398;49.112;8.598;2023-07-31T11:09:24;22.50;64.60
46139;DHT22;32398;49.112;8.598;2023-07-31T11:11:50;22.60;64.50
46139;DHT22;32398;49.112;8.598;2023-07-31T11:14:17;22.60;64.50
46139;DHT22;32398;49.112;8.598;2023-07-31T11:16:44;22.70;64.30
46139;DHT22;32398;49.112;8.598;2023-07-31T11:19:10;22.70;64.60
46139;DHT22;32398;49.112;8.598;2023-07-31T11:21:37;22.70;64.40
46139;DHT22;32398;49.112;8.598;2023-07-31T11:24:05;22.70;64.50
46139;DHT22;32398;49.112;8.598;2023-07-31T11:26:31;22.80;64.40
46139;DHT22;32398;49.112;8.598;2023-07-31T11:28:58;22.80;64.20
46139;DHT22;32398;49.112;8.598;2023-07-31T11:31:25;22.90;63.70
46139;DHT22;32398;49.112;8.598;2023-07-31T11:34:03;22.90;63.70
46139;DHT22;32398;49.112;8.598;2023-07-31T11:36:30;22.90;63.30
46139;DHT22;32398;49.112;8.598;2023-07-31T11:39:05;22.90;63.10
46139;DHT22;32398;49.112;8.598;2023-07-31T11:41:32;22.90;63.30
46139;DHT22;32398;49.112;8.598;2023-07-31T11:43:59;22.90;63.50
46139;DHT22;32398;49.112;8.598;2023-07-31T11:46:25;23.00;63.80
46139;DHT22;32398;49.112;8.598;2023-07-31T11:48:52;23.00;63.80
46139;DHT22;32398;49.112;8.598;2023-07-31T11:51:25;23.00;63.50
46139;DHT22;32398;49.112;8.598;2023-07-31T11:53:52;23.00;63.60
46139;DHT22;32398;49.112;8.598;2023-07-31T11:56:21;23.10;63.80
46139;DHT22;32398;49.112;8.598;2023-07-31T11:58:50;23.10;63.80
46139;DHT22;32398;49.112;8.598;2023-07-31T12:01:18;23.10;63.70
46139;DHT22;32398;49.112;8.598;2023-07-31T12:03:45;23.10;63.00
46139;DHT22;32398;49.112;8.598;2023-07-31T12:06:12;23.20;63.20
46139;DHT22;32398;49.112;8.598;2023-07-31T12:08:38;23.20;63.20
46139;DHT22;32398;49.112;8.598;2023-07-31T12:11:07;23.20;63.20
46139;DHT22;32398;49.112;8.598;2023-07-31T12:13:36;23.20;63.60
46139;DHT22;32398;49.112;8.598;2023-07-31T12:16:03;23.20;63.00
46139;DHT22;32398;49.112;8.598;2023-07-31T12:18:32;23.30;63.20
46139;DHT22;32398;49.112;8.598;2023-07-31T12:21:01;23.30;63.20
46139;DHT22;32398;49.112;8.598;2023-07-31T12:23:29;23.30;63.10
46139;DHT22;32398;49.112;8.598;2023-07-31T12:26:00;23.30;62.50
46139;DHT22;32398;49.112;8.598;2023-07-31T12:28:26;23.40;62.10
46139;DHT22;32398;49.112;8.598;2023-07-31T12:30:56;23.50;62.40
46139;DHT22;32398;49.112;8.598;2023-07-31T12:33:23;23.50;62.50
46139;DHT22;32398;49.112;8.598;2023-07-31T12:35:49;23.50;61.80
46139;DHT22;32398;49.112;8.598;2023-07-31T12:38:16;23.50;61.80
46139;DHT22;32398;49.112;8.598;2023-07-31T12:40:42;23.60;61.80
46139;DHT22;32398;49.112;8.598;2023-07-31T12:43:09;23.60;62.00
46139;DHT22;32398;49.112;8.598;2023-07-31T12:45:35;23.70;61.70
46139;DHT22;32398;49.112;8.598;2023-07-31T12:48:03;23.80;61.60
46139;DHT22;32398;49.112;8.598;2023-07-31T12:50:30;23.90;61.40
46139;DHT22;32398;49.112;8.598;2023-07-31T12:52:57;23.90;60.50
46139;DHT22;32398;49.112;8.598;2023-07-31T12:55:23;23.90;60.20
46139;DHT22;32398;49.112;8.598;2023-07-31T12:57:50;24.00;60.70
46139;DHT22;32398;49.112;8.598;2023-07-31T13:00:17;24.00;59.90
46139;DHT22;32398;49.112;8.598;2023-07-31T13:02:43;24.00;60.30
46139;DHT22;32398;49.112;8.598;2023-07-31T13:05:11;24.00;60.50
46139;DHT22;32398;49.112;8.598;2023-07-31T13:07:38;24.10;60.40
46139;DHT22;32398;49.112;8.598;2023-07-31T13:10:05;24.10;60.40
46139;DHT22;32398;49.112;8.598;2023-07-31T13:12:32;24.10;60.30
46139;DHT22;32398;49.112;8.598;2023-07-31T13:14:59;24.10;59.80
46139;DHT22;32398;49.112;8.598;2023-07-31T13:17:25;24.10;60.00
46139;DHT22;32398;49.112;8.598;2023-07-31T13:19:52;24.10;60.20
46139;DHT22;32398;49.112;8.598;2023-07-31T13:22:20;24.10;60.40
46139;DHT22;32398;49.112;8.598;2023-07-31T13:24:46;24.10;60.40
46139;DHT22;32398;49.112;8.598;2023-07-31T13:27:13;24.10;60.00
46139;DHT22;32398;49.112;8.598;2023-07-31T13:29:42;24.10;60.40
46139;DHT22;32398;49.112;8.598;2023-07-31T13:32:08;24.20;60.40
46139;DHT22;32398;49.112;8.598;2023-07-31T13:34:35;24.10;60.20
46139;DHT22;32398;49.112;8.598;2023-07-31T13:37:02;24.10;60.40
46139;DHT22;32398;49.112;8.598;2023-07-31T13:39:29;24.20;60.60
46139;DHT22;32398;49.112;8.598;2023-07-31T13:41:56;24.20;60.60
46139;DHT22;32398;49.112;8.598;2023-07-31T13:44:23;24.10;60.70
46139;DHT22;32398;49.112;8.598;2023-07-31T13:46:49;24.10;61.00
46139;DHT22;32398;49.112;8.598;2023-07-31T13:49:16;24.20;61.20
46139;DHT22;32398;49.112;8.598;2023-07-31T13:51:42;24.10;61.00
46139;DHT22;32398;49.112;8.598;2023-07-31T13:54:09;24.10;60.60
46139;DHT22;32398;49.112;8.598;2023-07-31T13:56:38;24.10;60.60
46139;DHT22;32398;49.112;8.598;2023-07-31T13:59:04;24.10;60.80
46139;DHT22;32398;49.112;8.598;2023-07-31T14:01:31;24.10;60.80
46139;DHT22;32398;49.112;8.598;2023-07-31T14:03:57;24.10;60.80
46139;DHT22;32398;49.112;8.598;2023-07-31T14:06:25;24.10;61.20
46139;DHT22;32398;49.112;8.598;2023-07-31T14:08:51;24.20;61.30
46139;DHT22;32398;49.112;8.598;2023-07-31T14:11:18;24.20;61.30
46139;DHT22;32398;49.112;8.598;2023-07-31T14:13:46;24.10;61.30
46139;DHT22;32398;49.112;8.598;2023-07-31T14:16:12;24.10;61.30
46139;DHT22;32398;49.112;8.598;2023-07-31T14:18:39;24.10;60.90
46139;DHT22;32398;49.112;8.598;2023-07-31T14:21:05;24.10;60.80
46139;DHT22;32398;49.112;8.598;2023-07-31T14:23:32;24.10;60.70
46139;DHT22;32398;49.112;8.598;2023-07-31T14:25:58;24.10;61.00
46139;DHT22;32398;49.112;8.598;2023-07-31T14:28:25;24.10;60.80
46139;DHT22;32398;49.112;8.598;2023-07-31T14:30:53;24.10;61.10
46139;DHT22;32398;49.112;8.598;2023-07-31T14:33:19;24.10;61.00
46139;DHT22;32398;49.112;8.598;2023-07-31T14:35:46;24.10;61.00
46139;DHT22;32398;49.112;8.598;2023-07-31T14:38:12;24.10;61.20
46139;DHT22;32398;49.112;8.598;2023-07-31T14:40:39;24.10;61.60
46139;DHT22;32398;49.112;8.598;2023-07-31T14:43:06;24.10;61.90
46139;DHT22;32398;49.112;8.598;2023-07-31T14:45:32;24.00;61.70
46139;DHT22;32398;49.112;8.598;2023-07-31T14:48:00;24.10;62.10
46139;DHT22;32398;49.112;8.598;2023-07-31T14:50:27;24.10;62.20
46139;DHT22;32398;49.112;8.598;2023-07-31T14:52:53;24.00;62.10
46139;DHT22;32398;49.112;8.598;2023-07-31T14:55:20;24.00;62.00
46139;DHT22;32398;49.112;8.598;2023-07-31T14:57:46;24.10;62.30
46139;DHT22;32398;49.112;8.598;2023-07-31T15:00:13;24.10;62.60
46139;DHT22;32398;49.112;8.598;2023-07-31T15:02:40;24.00;62.40
46139;DHT22;32398;49.112;8.598;2023-07-31T15:05:08;24.10;62.10
46139;DHT22;32398;49.112;8.598;2023-07-31T15:07:35;24.10;62.10
46139;DHT22;32398;49.112;8.598;2023-07-31T15:10:02;24.10;62.30
46139;DHT22;32398;49.112;8.598;2023-07-31T15:12:28;24.10;62.30
46139;DHT22;32398;49.112;8.598;2023-07-31T15:14:55;24.10;62.20
46139;DHT22;32398;49.112;8.598;2023-07-31T15:17:21;24.10;62.10
46139;DHT22;32398;49.112;8.598;2023-07-31T15:19:48;24.20;62.00
46139;DHT22;32398;49.112;8.598;2023-07-31T15:22:16;24.10;62.20
46139;DHT22;32398;49.112;8.598;2023-07-31T15:24:43;24.20;62.40
46139;DHT22;32398;49.112;8.598;2023-07-31T15:27:09;24.20;62.50
46139;DHT22;32398;49.112;8.598;2023-07-31T15:29:36;24.20;63.20
46139;DHT22;32398;49.112;8.598;2023-07-31T15:32:03;24.20;62.60